Terminal Aerodrome Forecast
Issued by NWS

Home | Current Version | Previous Version | Text Only | Print | Product List | Glossary On
Versions: 1 2 3 4 5 6 7 8 9 10 11 12
000
FTUS44 KBMX 280700 AAA
TAFMGM
TAF AMD
KMGM 280739Z 2808/2906 17007KT 6SM -SHRA BR SCT006 OVC025
     FM281000 13006KT 2SM RA BR SCT006 OVC015
     FM281300 20005KT 4SM -RA BR OVC006
     FM281800 24007KT 5SM SHRA BR OVC007=

USA.gov is the U.S. government's official web portal to all federal, state and local government web resources and services.